CheckWX is a tool to help pilots better visualize weather data.  It is not intended as a substitute for an official pre-flight weather briefing.

15:04:50 UTC

KONO METAR
Ontario Municipal Airport
Ontario, Oregon, USA
Current

12 mins ago

KONO 231453Z AUTO 32006KT 10SM CLR 16/06 A2987 RMK AO2 SLP109 T01560056 58007
Observed
May-23 @ 14:53 UTC
Wind
  • 320° at 6 KTS
Visibility
10 SM
Flight Rules
VFR
Cloud Levels
  • Clear skies
Temperature
16°C / 61°F
Dewpoint
C / 43°F
Humidity
52%
Altimeter
29.87" Hg
Pressure
1011.52 hPa
Previous

1 hour ago

KONO 231353Z AUTO 30003KT 10SM SCT120 13/07 A2987 RMK AO2 SLP114 T01280067
Observed
May-23 @ 13:53 UTC
Wind
  • 300° at 3 KTS
Visibility
10 SM
Flight Rules
VFR
Cloud Levels
  • Scattered at 12,000' AGL
Temperature
13°C / 55°F
Dewpoint
C / 45°F
Humidity
67%
Altimeter
29.87" Hg
Pressure
1011.52 hPa
Previous

2 hours ago

KONO 231253Z AUTO 00000KT 10SM CLR 10/07 A2988 RMK AO2 SLP117 T01000072
Observed
May-23 @ 12:53 UTC
Visibility
10 SM
Flight Rules
VFR
Cloud Levels
  • Clear skies
Temperature
10°C / 50°F
Dewpoint
C / 45°F
Humidity
82%
Altimeter
29.88" Hg
Pressure
1011.82 hPa